Hardwood, Louisiana
Current Conditions -  °F | °C
As of 7:15 PM on Tuesday 21 Oct 2014 (Local Time) from KHZR Reporting Station
Clear Clear  
Wind Chill: 69°   Ceiling: Unl
Heat Index: 69°   Visibility: 10mi
Dew Point: 60°   Wind: 3mph
Humidity: 73%   Direction: 340°NNW
Pressure: 30"   Gusts: NA
Location:  30.8804°N, 91.4243°W
Report Text: KHZR 220015Z AUTO 34003KT 10SM CLR 21/16 A3000 RMK AO2 T02060157
Loading
Personal Weather Stations






























Interactive Weather Map
Tropical Storm Tracking
New forecast layout! Learn more

10-Day Weather Forecast

Advertisements
Track Severe Weather on mobile